sensor_id;sensor_type;location;lat;lon;timestamp;pressure;altitude;pressure_sealevel;temperature;humidity
36748;BME280;22716;51.556;5.080;2022-10-01T00:00:25;100052.47;;;11.75;100.00
36748;BME280;22716;51.556;5.080;2022-10-01T00:03:14;100038.63;;;11.70;100.00
36748;BME280;22716;51.556;5.080;2022-10-01T00:05:43;100026.41;;;11.69;100.00
36748;BME280;22716;51.556;5.080;2022-10-01T00:08:18;100010.88;;;11.60;100.00
36748;BME280;22716;51.556;5.080;2022-10-01T00:10:47;100024.69;;;11.67;100.00
36748;BME280;22716;51.556;5.080;2022-10-01T00:13:16;100045.66;;;11.70;100.00
36748;BME280;22716;51.556;5.080;2022-10-01T00:15:48;100023.75;;;11.71;100.00
36748;BME280;22716;51.556;5.080;2022-10-01T00:18:18;100021.94;;;11.73;100.00
36748;BME280;22716;51.556;5.080;2022-10-01T00:20:46;100013.22;;;11.72;100.00
36748;BME280;22716;51.556;5.080;2022-10-01T00:23:15;100013.22;;;11.72;100.00
36748;BME280;22716;51.556;5.080;2022-10-01T00:25:44;100016.69;;;11.73;100.00
36748;BME280;22716;51.556;5.080;2022-10-01T00:28:33;100011.47;;;11.71;100.00
36748;BME280;22716;51.556;5.080;2022-10-01T00:31:06;100014.06;;;11.73;100.00
36748;BME280;22716;51.556;5.080;2022-10-01T00:33:40;100028.06;;;11.73;100.00
36748;BME280;22716;51.556;5.080;2022-10-01T00:36:10;100014.97;;;11.72;100.00
36748;BME280;22716;51.556;5.080;2022-10-01T00:38:39;100006.22;;;11.71;100.00
36748;BME280;22716;51.556;5.080;2022-10-01T00:41:14;100008.91;;;11.70;100.00
36748;BME280;22716;51.556;5.080;2022-10-01T00:43:46;100008.69;;;11.77;100.00
36748;BME280;22716;51.556;5.080;2022-10-01T00:46:21;100002.78;;;11.71;100.00
36748;BME280;22716;51.556;5.080;2022-10-01T00:48:57;100024.59;;;11.71;100.00
36748;BME280;22716;51.556;5.080;2022-10-01T00:51:30;100007.19;;;11.67;100.00
36748;BME280;22716;51.556;5.080;2022-10-01T00:54:07;100013.41;;;11.65;100.00
36748;BME280;22716;51.556;5.080;2022-10-01T00:56:39;100010.81;;;11.63;100.00
36748;BME280;22716;51.556;5.080;2022-10-01T00:59:09;99974.16;;;11.60;100.00
36748;BME280;22716;51.556;5.080;2022-10-01T01:01:42;99965.50;;;11.57;100.00
36748;BME280;22716;51.556;5.080;2022-10-01T01:04:12;99953.34;;;11.54;100.00
36748;BME280;22716;51.556;5.080;2022-10-01T01:06:49;99923.75;;;11.49;100.00
36748;BME280;22716;51.556;5.080;2022-10-01T01:09:22;99937.66;;;11.53;100.00
36748;BME280;22716;51.556;5.080;2022-10-01T01:11:56;99935.13;;;11.50;100.00
36748;BME280;22716;51.556;5.080;2022-10-01T01:14:57;99936.91;;;11.48;100.00
36748;BME280;22716;51.556;5.080;2022-10-01T01:17:40;99947.53;;;11.43;100.00
36748;BME280;22716;51.556;5.080;2022-10-01T01:20:27;99946.41;;;11.52;100.00
36748;BME280;22716;51.556;5.080;2022-10-01T01:23:08;99948.06;;;11.56;100.00
36748;BME280;22716;51.556;5.080;2022-10-01T01:25:54;99932.59;;;11.47;100.00
36748;BME280;22716;51.556;5.080;2022-10-01T01:28:36;99941.06;;;11.56;100.00
36748;BME280;22716;51.556;5.080;2022-10-01T01:31:19;99941.88;;;11.58;100.00
36748;BME280;22716;51.556;5.080;2022-10-01T01:33:53;99924.41;;;11.57;100.00
36748;BME280;22716;51.556;5.080;2022-10-01T01:36:27;99916.59;;;11.54;100.00
36748;BME280;22716;51.556;5.080;2022-10-01T01:39:01;99898.50;;;11.45;100.00
36748;BME280;22716;51.556;5.080;2022-10-01T01:41:39;99904.41;;;11.53;100.00
36748;BME280;22716;51.556;5.080;2022-10-01T01:44:23;99894.03;;;11.49;100.00
36748;BME280;22716;51.556;5.080;2022-10-01T01:46:54;99900.97;;;11.51;100.00
36748;BME280;22716;51.556;5.080;2022-10-01T01:49:25;99888.94;;;11.44;100.00
36748;BME280;22716;51.556;5.080;2022-10-01T01:51:58;99896.63;;;11.50;100.00
36748;BME280;22716;51.556;5.080;2022-10-01T01:54:33;99888.78;;;11.49;100.00
36748;BME280;22716;51.556;5.080;2022-10-01T01:57:04;99887.03;;;11.49;100.00
36748;BME280;22716;51.556;5.080;2022-10-01T01:59:36;99895.78;;;11.50;100.00
36748;BME280;22716;51.556;5.080;2022-10-01T02:02:06;99904.53;;;11.49;100.00
36748;BME280;22716;51.556;5.080;2022-10-01T02:04:40;99895.00;;;11.46;100.00
36748;BME280;22716;51.556;5.080;2022-10-01T02:10:43;99875.75;;;11.47;100.00
36748;BME280;22716;51.556;5.080;2022-10-01T02:13:24;99871.44;;;11.45;100.00
36748;BME280;22716;51.556;5.080;2022-10-01T02:16:05;99882.59;;;11.51;100.00
36748;BME280;22716;51.556;5.080;2022-10-01T02:18:49;99870.41;;;11.50;100.00
36748;BME280;22716;51.556;5.080;2022-10-01T02:21:35;99865.16;;;11.50;100.00
36748;BME280;22716;51.556;5.080;2022-10-01T02:24:15;99863.44;;;11.49;100.00
36748;BME280;22716;51.556;5.080;2022-10-01T02:26:50;99867.78;;;11.50;100.00
36748;BME280;22716;51.556;5.080;2022-10-01T02:29:21;99866.84;;;11.51;100.00
36748;BME280;22716;51.556;5.080;2022-10-01T02:32:00;99860.66;;;11.54;100.00
36748;BME280;22716;51.556;5.080;2022-10-01T02:34:33;99864.16;;;11.54;100.00
36748;BME280;22716;51.556;5.080;2022-10-01T02:37:04;99861.44;;;11.57;100.00
36748;BME280;22716;51.556;5.080;2022-10-01T02:39:42;99865.81;;;11.57;100.00
36748;BME280;22716;51.556;5.080;2022-10-01T02:42:15;99848.41;;;11.54;100.00
36748;BME280;22716;51.556;5.080;2022-10-01T02:44:51;99854.56;;;11.53;100.00
36748;BME280;22716;51.556;5.080;2022-10-01T02:47:36;99870.94;;;11.61;100.00
36748;BME280;22716;51.556;5.080;2022-10-01T02:50:11;99880.53;;;11.62;100.00
36748;BME280;22716;51.556;5.080;2022-10-01T02:52:44;99864.69;;;11.65;100.00
36748;BME280;22716;51.556;5.080;2022-10-01T02:55:19;99844.63;;;11.64;100.00
36748;BME280;22716;51.556;5.080;2022-10-01T02:57:53;99872.53;;;11.67;100.00
36748;BME280;22716;51.556;5.080;2022-10-01T03:00:20;99875.09;;;11.68;100.00
36748;BME280;22716;51.556;5.080;2022-10-01T03:02:54;99842.00;;;11.64;100.00
36748;BME280;22716;51.556;5.080;2022-10-01T03:05:24;99853.22;;;11.69;100.00
36748;BME280;22716;51.556;5.080;2022-10-01T03:07:53;99865.44;;;11.70;100.00
36748;BME280;22716;51.556;5.080;2022-10-01T03:10:23;99859.25;;;11.73;100.00
36748;BME280;22716;51.556;5.080;2022-10-01T03:12:51;99861.81;;;11.74;100.00
36748;BME280;22716;51.556;5.080;2022-10-01T03:15:21;99851.31;;;11.74;100.00
36748;BME280;22716;51.556;5.080;2022-10-01T03:17:50;99846.94;;;11.75;100.00
36748;BME280;22716;51.556;5.080;2022-10-01T03:20:22;99845.97;;;11.77;100.00
36748;BME280;22716;51.556;5.080;2022-10-01T03:22:52;99837.34;;;11.74;100.00
36748;BME280;22716;51.556;5.080;2022-10-01T03:25:21;99839.75;;;11.80;100.00
36748;BME280;22716;51.556;5.080;2022-10-01T03:27:50;99852.06;;;11.79;100.00
36748;BME280;22716;51.556;5.080;2022-10-01T03:30:19;99858.91;;;11.84;100.00
36748;BME280;22716;51.556;5.080;2022-10-01T03:32:49;99855.28;;;11.88;100.00
36748;BME280;22716;51.556;5.080;2022-10-01T03:35:26;99826.88;;;11.74;100.00
36748;BME280;22716;51.556;5.080;2022-10-01T03:37:55;99852.59;;;11.89;100.00
36748;BME280;22716;51.556;5.080;2022-10-01T03:40:24;99848.22;;;11.90;100.00
36748;BME280;22716;51.556;5.080;2022-10-01T03:42:53;99836.84;;;11.89;100.00
36748;BME280;22716;51.556;5.080;2022-10-01T03:45:22;99842.88;;;11.93;100.00
36748;BME280;22716;51.556;5.080;2022-10-01T03:47:51;99834.97;;;11.94;100.00
36748;BME280;22716;51.556;5.080;2022-10-01T03:50:21;99840.06;;;11.99;100.00
36748;BME280;22716;51.556;5.080;2022-10-01T03:52:52;99851.34;;;12.01;100.00
36748;BME280;22716;51.556;5.080;2022-10-01T03:55:21;99844.25;;;12.04;100.00
36748;BME280;22716;51.556;5.080;2022-10-01T03:57:51;99855.50;;;12.08;100.00
36748;BME280;22716;51.556;5.080;2022-10-01T04:00:20;99845.06;;;12.06;100.00
36748;BME280;22716;51.556;5.080;2022-10-01T04:02:48;99855.34;;;12.12;100.00
36748;BME280;22716;51.556;5.080;2022-10-01T04:05:18;99855.34;;;12.12;100.00
36748;BME280;22716;51.556;5.080;2022-10-01T04:07:47;99849.16;;;12.15;100.00
36748;BME280;22716;51.556;5.080;2022-10-01T04:10:19;99862.19;;;12.18;100.00
36748;BME280;22716;51.556;5.080;2022-10-01T04:12:48;99857.66;;;12.23;100.00
36748;BME280;22716;51.556;5.080;2022-10-01T04:15:17;99856.78;;;12.22;100.00
36748;BME280;22716;51.556;5.080;2022-10-01T04:17:47;99855.78;;;12.26;100.00
36748;BME280;22716;51.556;5.080;2022-10-01T04:20:16;99840.38;;;12.16;100.00
36748;BME280;22716;51.556;5.080;2022-10-01T04:22:45;99867.91;;;12.30;100.00
36748;BME280;22716;51.556;5.080;2022-10-01T04:25:17;99858.16;;;12.34;100.00
36748;BME280;22716;51.556;5.080;2022-10-01T04:27:55;99864.31;;;12.33;100.00
36748;BME280;22716;51.556;5.080;2022-10-01T04:30:42;99867.66;;;12.38;100.00
36748;BME280;22716;51.556;5.080;2022-10-01T04:33:12;99865.03;;;12.38;100.00
36748;BME280;22716;51.556;5.080;2022-10-01T04:35:42;99879.75;;;12.42;100.00
36748;BME280;22716;51.556;5.080;2022-10-01T04:38:13;99868.53;;;12.39;100.00
36748;BME280;22716;51.556;5.080;2022-10-01T04:40:45;99875.28;;;12.46;100.00
36748;BME280;22716;51.556;5.080;2022-10-01T04:43:14;99887.41;;;12.50;100.00
36748;BME280;22716;51.556;5.080;2022-10-01T04:45:46;99894.63;;;12.43;100.00
36748;BME280;22716;51.556;5.080;2022-10-01T04:48:16;99905.63;;;12.54;100.00
36748;BME280;22716;51.556;5.080;2022-10-01T04:50:46;99912.56;;;12.57;100.00
36748;BME280;22716;51.556;5.080;2022-10-01T04:53:15;99908.22;;;12.56;100.00
36748;BME280;22716;51.556;5.080;2022-10-01T04:55:47;99908.16;;;12.57;100.00
36748;BME280;22716;51.556;5.080;2022-10-01T04:58:16;99903.75;;;12.59;100.00
36748;BME280;22716;51.556;5.080;2022-10-01T05:00:45;99903.75;;;12.59;100.00
36748;BME280;22716;51.556;5.080;2022-10-01T05:03:17;99904.47;;;12.63;100.00
36748;BME280;22716;51.556;5.080;2022-10-01T05:05:45;99905.34;;;12.63;100.00
36748;BME280;22716;51.556;5.080;2022-10-01T05:08:15;99907.00;;;12.66;100.00
36748;BME280;22716;51.556;5.080;2022-10-01T05:10:47;99900.88;;;12.65;100.00
36748;BME280;22716;51.556;5.080;2022-10-01T05:13:16;99914.88;;;12.66;100.00
36748;BME280;22716;51.556;5.080;2022-10-01T05:15:47;99913.81;;;12.71;100.00
36748;BME280;22716;51.556;5.080;2022-10-01T05:18:20;99920.78;;;12.72;100.00
36748;BME280;22716;51.556;5.080;2022-10-01T05:20:49;99920.63;;;12.77;100.00
36748;BME280;22716;51.556;5.080;2022-10-01T05:23:17;99927.69;;;12.76;100.00
36748;BME280;22716;51.556;5.080;2022-10-01T05:25:49;99930.34;;;12.75;100.00
36748;BME280;22716;51.556;5.080;2022-10-01T05:28:18;99940.75;;;12.78;100.00
36748;BME280;22716;51.556;5.080;2022-10-01T05:30:47;99939.75;;;12.82;100.00
36748;BME280;22716;51.556;5.080;2022-10-01T05:33:16;99945.91;;;12.81;100.00
36748;BME280;22716;51.556;5.080;2022-10-01T05:35:45;99951.88;;;12.86;100.00
36748;BME280;22716;51.556;5.080;2022-10-01T05:38:14;99940.66;;;12.81;100.00
36748;BME280;22716;51.556;5.080;2022-10-01T05:40:46;99957.09;;;12.87;100.00
36748;BME280;22716;51.556;5.080;2022-10-01T05:43:23;99943.28;;;12.81;100.00
36748;BME280;22716;51.556;5.080;2022-10-01T05:45:52;99946.78;;;12.81;100.00
36748;BME280;22716;51.556;5.080;2022-10-01T05:48:21;99960.56;;;12.88;100.00
36748;BME280;22716;51.556;5.080;2022-10-01T05:50:51;99956.28;;;12.85;100.00
36748;BME280;22716;51.556;5.080;2022-10-01T05:53:20;99960.50;;;12.89;100.00
36748;BME280;22716;51.556;5.080;2022-10-01T05:55:52;99967.50;;;12.90;100.00
36748;BME280;22716;51.556;5.080;2022-10-01T05:58:23;99968.38;;;12.91;100.00
36748;BME280;22716;51.556;5.080;2022-10-01T06:00:54;99980.53;;;12.93;100.00
36748;BME280;22716;51.556;5.080;2022-10-01T06:03:24;99980.53;;;12.93;100.00
36748;BME280;22716;51.556;5.080;2022-10-01T06:05:53;99980.47;;;12.95;100.00
36748;BME280;22716;51.556;5.080;2022-10-01T06:08:23;99983.97;;;12.96;100.00
36748;BME280;22716;51.556;5.080;2022-10-01T06:10:59;99983.09;;;12.95;100.00
36748;BME280;22716;51.556;5.080;2022-10-01T06:13:37;99990.13;;;12.94;100.00
36748;BME280;22716;51.556;5.080;2022-10-01T06:16:10;99984.16;;;12.89;100.00
36748;BME280;22716;51.556;5.080;2022-10-01T06:18:38;99985.00;;;12.91;100.00
36748;BME280;22716;51.556;5.080;2022-10-01T06:21:08;99996.34;;;12.92;100.00
36748;BME280;22716;51.556;5.080;2022-10-01T06:23:37;99992.03;;;12.91;100.00
36748;BME280;22716;51.556;5.080;2022-10-01T06:26:09;99994.50;;;12.96;100.00
36748;BME280;22716;51.556;5.080;2022-10-01T06:28:40;99995.16;;;13.02;100.00
36748;BME280;22716;51.556;5.080;2022-10-01T06:31:09;99995.91;;;13.06;100.00
36748;BME280;22716;51.556;5.080;2022-10-01T06:33:38;100000.25;;;13.07;100.00
36748;BME280;22716;51.556;5.080;2022-10-01T06:36:07;100003.66;;;13.10;100.00
36748;BME280;22716;51.556;5.080;2022-10-01T06:38:36;99996.63;;;13.11;100.00
36748;BME280;22716;51.556;5.080;2022-10-01T06:41:09;100002.78;;;13.10;100.00
36748;BME280;22716;51.556;5.080;2022-10-01T06:43:41;100004.44;;;13.14;100.00
36748;BME280;22716;51.556;5.080;2022-10-01T06:46:10;100001.59;;;13.20;100.00
36748;BME280;22716;51.556;5.080;2022-10-01T06:48:39;100005.00;;;13.22;100.00
36748;BME280;22716;51.556;5.080;2022-10-01T06:51:09;100014.25;;;13.33;100.00
36748;BME280;22716;51.556;5.080;2022-10-01T06:53:37;100019.28;;;13.41;100.00
36748;BME280;22716;51.556;5.080;2022-10-01T06:56:05;100011.28;;;13.44;100.00
36748;BME280;22716;51.556;5.080;2022-10-01T06:58:34;100014.50;;;13.51;100.00
36748;BME280;22716;51.556;5.080;2022-10-01T07:01:06;100017.13;;;13.52;100.00
36748;BME280;22716;51.556;5.080;2022-10-01T07:03:36;100020.22;;;13.63;100.00
36748;BME280;22716;51.556;5.080;2022-10-01T07:06:05;100021.84;;;13.67;100.00
36748;BME280;22716;51.556;5.080;2022-10-01T07:08:36;100026.66;;;13.79;100.00
36748;BME280;22716;51.556;5.080;2022-10-01T07:11:05;100024.88;;;13.80;100.00
36748;BME280;22716;51.556;5.080;2022-10-01T07:13:34;100036.25;;;13.80;100.00
36748;BME280;22716;51.556;5.080;2022-10-01T07:16:06;100043.38;;;13.78;100.00
36748;BME280;22716;51.556;5.080;2022-10-01T07:18:39;100034.88;;;13.70;100.00
36748;BME280;22716;51.556;5.080;2022-10-01T07:21:09;100060.06;;;13.77;100.00
36748;BME280;22716;51.556;5.080;2022-10-01T07:23:38;100070.69;;;13.74;100.00
36748;BME280;22716;51.556;5.080;2022-10-01T07:26:07;100096.22;;;13.72;100.00
36748;BME280;22716;51.556;5.080;2022-10-01T07:28:36;100068.56;;;13.61;100.00
36748;BME280;22716;51.556;5.080;2022-10-01T07:31:09;100083.28;;;13.66;100.00
36748;BME280;22716;51.556;5.080;2022-10-01T07:33:38;100079.88;;;13.63;100.00
36748;BME280;22716;51.556;5.080;2022-10-01T07:36:10;100102.69;;;13.64;100.00
36748;BME280;22716;51.556;5.080;2022-10-01T07:38:48;100098.38;;;13.61;100.00
36748;BME280;22716;51.556;5.080;2022-10-01T07:41:17;100093.22;;;13.58;100.00
36748;BME280;22716;51.556;5.080;2022-10-01T07:43:46;100098.41;;;13.60;100.00
36748;BME280;22716;51.556;5.080;2022-10-01T07:46:19;100090.41;;;13.63;100.00
36748;BME280;22716;51.556;5.080;2022-10-01T07:48:47;100094.78;;;13.64;100.00
36748;BME280;22716;51.556;5.080;2022-10-01T07:54:01;100103.22;;;13.73;100.00
36748;BME280;22716;51.556;5.080;2022-10-01T07:56:31;100111.72;;;13.81;100.00
36748;BME280;22716;51.556;5.080;2022-10-01T07:59:01;100106.34;;;13.84;100.00
36748;BME280;22716;51.556;5.080;2022-10-01T08:01:32;100116.66;;;13.90;100.00
36748;BME280;22716;51.556;5.080;2022-10-01T08:04:02;100125.34;;;13.92;100.00
36748;BME280;22716;51.556;5.080;2022-10-01T08:06:52;100124.38;;;13.95;100.00
36748;BME280;22716;51.556;5.080;2022-10-01T08:09:21;100125.31;;;13.94;100.00
36748;BME280;22716;51.556;5.080;2022-10-01T08:11:51;100127.78;;;13.98;100.00
36748;BME280;22716;51.556;5.080;2022-10-01T08:14:20;100135.56;;;14.01;100.00
36748;BME280;22716;51.556;5.080;2022-10-01T08:16:53;100138.16;;;14.03;100.00
36748;BME280;22716;51.556;5.080;2022-10-01T08:19:23;100130.50;;;13.95;100.00
36748;BME280;22716;51.556;5.080;2022-10-01T08:21:52;100135.88;;;13.92;100.00
36748;BME280;22716;51.556;5.080;2022-10-01T08:24:21;100146.09;;;14.01;100.00
36748;BME280;22716;51.556;5.080;2022-10-01T08:26:56;100155.44;;;14.10;100.00
36748;BME280;22716;51.556;5.080;2022-10-01T08:29:25;100152.66;;;14.15;100.00
36748;BME280;22716;51.556;5.080;2022-10-01T08:31:57;100158.09;;;14.10;100.00
36748;BME280;22716;51.556;5.080;2022-10-01T08:34:26;100158.16;;;14.09;100.00
36748;BME280;22716;51.556;5.080;2022-10-01T08:36:56;100148.53;;;14.08;100.00
36748;BME280;22716;51.556;5.080;2022-10-01T08:39:24;100158.16;;;14.09;100.00
36748;BME280;22716;51.556;5.080;2022-10-01T08:42:02;100163.03;;;14.19;100.00
36748;BME280;22716;51.556;5.080;2022-10-01T08:44:38;100166.09;;;14.32;100.00
36748;BME280;22716;51.556;5.080;2022-10-01T08:47:12;100168.53;;;14.38;100.00
36748;BME280;22716;51.556;5.080;2022-10-01T08:49:49;100176.09;;;14.47;100.00
36748;BME280;22716;51.556;5.080;2022-10-01T08:52:24;100167.91;;;14.54;100.00
36748;BME280;22716;51.556;5.080;2022-10-01T08:54:56;100167.38;;;14.68;100.00
36748;BME280;22716;51.556;5.080;2022-10-01T08:57:31;100178.41;;;14.79;100.00
36748;BME280;22716;51.556;5.080;2022-10-01T09:00:08;100182.69;;;14.82;100.00
36748;BME280;22716;51.556;5.080;2022-10-01T09:02:43;100185.91;;;14.90;100.00
36748;BME280;22716;51.556;5.080;2022-10-01T09:05:20;100177.91;;;14.91;100.00
36748;BME280;22716;51.556;5.080;2022-10-01T09:08:06;100192.22;;;15.07;100.00
36748;BME280;22716;51.556;5.080;2022-10-01T09:10:45;100180.16;;;15.02;100.00
36748;BME280;22716;51.556;5.080;2022-10-01T09:16:23;100195.31;;;15.19;100.00
36748;BME280;22716;51.556;5.080;2022-10-01T09:19:14;100196.69;;;15.29;100.00
36748;BME280;22716;51.556;5.080;2022-10-01T09:21:54;100204.09;;;15.41;100.00
36748;BME280;22716;51.556;5.080;2022-10-01T09:24:41;100212.75;;;15.44;100.00
36748;BME280;22716;51.556;5.080;2022-10-01T09:27:27;100203.69;;;15.51;100.00
36748;BME280;22716;51.556;5.080;2022-10-01T09:30:00;100201.78;;;15.55;100.00
36748;BME280;22716;51.556;5.080;2022-10-01T09:32:37;100218.44;;;15.57;100.00
36748;BME280;22716;51.556;5.080;2022-10-01T09:35:33;100217.56;;;15.56;100.00
36748;BME280;22716;51.556;5.080;2022-10-01T09:38:12;100210.38;;;15.60;100.00
36748;BME280;22716;51.556;5.080;2022-10-01T09:40:52;100213.28;;;15.54;100.00
36748;BME280;22716;51.556;5.080;2022-10-01T09:43:24;100211.50;;;15.54;100.00
36748;BME280;22716;51.556;5.080;2022-10-01T09:45:57;100224.06;;;15.69;100.00
36748;BME280;22716;51.556;5.080;2022-10-01T09:48:31;100229.72;;;15.82;100.00
36748;BME280;22716;51.556;5.080;2022-10-01T09:51:09;100212.31;;;15.77;100.00
36748;BME280;22716;51.556;5.080;2022-10-01T09:53:58;100233.03;;;15.87;100.00
36748;BME280;22716;51.556;5.080;2022-10-01T09:56:36;100236.31;;;15.92;100.00
36748;BME280;22716;51.556;5.080;2022-10-01T09:59:12;100239.31;;;16.05;100.00
36748;BME280;22716;51.556;5.080;2022-10-01T10:01:46;100241.44;;;16.17;100.00
36748;BME280;22716;51.556;5.080;2022-10-01T10:04:22;100239.94;;;16.32;100.00
36748;BME280;22716;51.556;5.080;2022-10-01T10:06:59;100240.31;;;16.43;100.00
36748;BME280;22716;51.556;5.080;2022-10-01T10:09:31;100251.53;;;16.48;100.00
36748;BME280;22716;51.556;5.080;2022-10-01T10:12:05;100261.06;;;16.52;100.00
36748;BME280;22716;51.556;5.080;2022-10-01T10:14:40;100257.47;;;16.53;100.00
36748;BME280;22716;51.556;5.080;2022-10-01T10:17:13;100259.41;;;16.49;100.00
36748;BME280;22716;51.556;5.080;2022-10-01T10:19:46;100275.22;;;16.51;100.00
36748;BME280;22716;51.556;5.080;2022-10-01T10:22:22;100273.97;;;16.39;100.00
36748;BME280;22716;51.556;5.080;2022-10-01T10:24:54;100274.69;;;16.43;100.00
36748;BME280;22716;51.556;5.080;2022-10-01T10:27:34;100288.31;;;16.54;100.00
36748;BME280;22716;51.556;5.080;2022-10-01T10:30:05;100282.63;;;16.43;100.00
36748;BME280;22716;51.556;5.080;2022-10-01T10:32:34;100292.34;;;16.42;100.00
36748;BME280;22716;51.556;5.080;2022-10-01T10:35:10;100300.03;;;16.26;100.00
36748;BME280;22716;51.556;5.080;2022-10-01T10:37:50;100313.63;;;16.17;100.00
36748;BME280;22716;51.556;5.080;2022-10-01T10:40:25;100302.66;;;16.06;100.00
36748;BME280;22716;51.556;5.080;2022-10-01T10:42:58;100309.59;;;16.09;100.00
36748;BME280;22716;51.556;5.080;2022-10-01T10:45:31;100319.25;;;16.10;100.00
36748;BME280;22716;51.556;5.080;2022-10-01T10:48:04;100314.44;;;15.99;100.00
36748;BME280;22716;51.556;5.080;2022-10-01T10:50:36;100315.78;;;15.88;100.00
36748;BME280;22716;51.556;5.080;2022-10-01T10:53:22;100322.59;;;15.93;100.00
36748;BME280;22716;51.556;5.080;2022-10-01T10:55:56;100330.16;;;16.02;100.00
36748;BME280;22716;51.556;5.080;2022-10-01T10:58:27;100327.84;;;16.15;100.00
36748;BME280;22716;51.556;5.080;2022-10-01T11:01:00;100335.88;;;16.34;100.00
36748;BME280;22716;51.556;5.080;2022-10-01T11:03:40;100344.66;;;16.56;100.00
36748;BME280;22716;51.556;5.080;2022-10-01T11:06:15;100337.91;;;16.69;100.00
36748;BME280;22716;51.556;5.080;2022-10-01T11:08:56;100342.41;;;16.87;100.00
36748;BME280;22716;51.556;5.080;2022-10-01T11:11:41;100343.16;;;17.09;100.00
36748;BME280;22716;51.556;5.080;2022-10-01T11:14:28;100347.50;;;17.30;100.00
36748;BME280;22716;51.556;5.080;2022-10-01T11:17:23;100344.66;;;17.54;100.00
36748;BME280;22716;51.556;5.080;2022-10-01T11:20:13;100359.56;;;17.75;100.00
36748;BME280;22716;51.556;5.080;2022-10-01T11:22:55;100357.41;;;17.83;99.40
36748;BME280;22716;51.556;5.080;2022-10-01T11:25:37;100368.78;;;17.85;98.24
36748;BME280;22716;51.556;5.080;2022-10-01T11:28:25;100366.38;;;17.80;97.54
36748;BME280;22716;51.556;5.080;2022-10-01T11:31:09;100371.91;;;17.76;97.88
36748;BME280;22716;51.556;5.080;2022-10-01T11:33:50;100383.22;;;17.61;98.37
36748;BME280;22716;51.556;5.080;2022-10-01T11:36:30;100385.94;;;17.39;98.77
36748;BME280;22716;51.556;5.080;2022-10-01T11:39:04;100386.72;;;17.22;97.66
36748;BME280;22716;51.556;5.080;2022-10-01T11:41:47;100398.56;;;17.14;97.72
36748;BME280;22716;51.556;5.080;2022-10-01T11:44:24;100398.56;;;17.14;97.80
36748;BME280;22716;51.556;5.080;2022-10-01T11:47:01;100409.31;;;17.29;96.17
36748;BME280;22716;51.556;5.080;2022-10-01T11:49:49;100400.78;;;17.43;94.27
36748;BME280;22716;51.556;5.080;2022-10-01T11:52:31;100408.09;;;17.57;93.48
36748;BME280;22716;51.556;5.080;2022-10-01T11:55:12;100406.81;;;17.65;92.97
36748;BME280;22716;51.556;5.080;2022-10-01T11:58:04;100405.06;;;17.84;93.11
36748;BME280;22716;51.556;5.080;2022-10-01T12:01:00;100404.25;;;18.01;92.35
36748;BME280;22716;51.556;5.080;2022-10-01T12:03:39;100397.06;;;18.03;91.35
36748;BME280;22716;51.556;5.080;2022-10-01T12:06:13;100405.31;;;18.16;90.33
36748;BME280;22716;51.556;5.080;2022-10-01T12:08:49;100424.25;;;18.08;89.68
36748;BME280;22716;51.556;5.080;2022-10-01T12:11:28;100422.03;;;17.99;89.14
36748;BME280;22716;51.556;5.080;2022-10-01T12:14:09;100429.03;;;18.00;89.23
36748;BME280;22716;51.556;5.080;2022-10-01T12:16:45;100440.72;;;17.96;89.74
36748;BME280;22716;51.556;5.080;2022-10-01T12:19:25;100423.31;;;17.90;89.95
36748;BME280;22716;51.556;5.080;2022-10-01T12:22:00;100445.22;;;17.94;89.74
36748;BME280;22716;51.556;5.080;2022-10-01T12:24:40;100443.19;;;17.62;85.69
36748;BME280;22716;51.556;5.080;2022-10-01T12:27:28;100455.03;;;17.53;83.76
36748;BME280;22716;51.556;5.080;2022-10-01T12:30:07;100433.56;;;17.41;84.38
36748;BME280;22716;51.556;5.080;2022-10-01T12:33:06;100460.59;;;17.47;82.90
36748;BME280;22716;51.556;5.080;2022-10-01T12:36:00;100461.47;;;17.48;83.92
36748;BME280;22716;51.556;5.080;2022-10-01T12:38:48;100463.72;;;17.57;84.42
36748;BME280;22716;51.556;5.080;2022-10-01T12:41:31;100467.69;;;17.67;85.08
36748;BME280;22716;51.556;5.080;2022-10-01T12:47:18;100456.75;;;17.74;85.61
36748;BME280;22716;51.556;5.080;2022-10-01T12:49:59;100466.91;;;17.83;85.53
36748;BME280;22716;51.556;5.080;2022-10-01T12:52:46;100462.69;;;17.79;85.03
36748;BME280;22716;51.556;5.080;2022-10-01T12:55:45;100487.25;;;17.83;85.58
36748;BME280;22716;51.556;5.080;2022-10-01T12:59:08;100488.13;;;17.83;86.62
36748;BME280;22716;51.556;5.080;2022-10-01T13:02:43;100497.25;;;17.76;87.54
36748;BME280;22716;51.556;5.080;2022-10-01T13:05:22;100505.63;;;17.67;88.11
36748;BME280;22716;51.556;5.080;2022-10-01T13:08:18;100509.47;;;17.80;88.38
36748;BME280;22716;51.556;5.080;2022-10-01T13:11:01;100510.38;;;17.79;88.26
36748;BME280;22716;51.556;5.080;2022-10-01T13:13:36;100510.75;;;17.72;87.76
36748;BME280;22716;51.556;5.080;2022-10-01T13:16:23;100522.59;;;17.63;87.90
36748;BME280;22716;51.556;5.080;2022-10-01T13:19:06;100528.56;;;17.68;87.50
36748;BME280;22716;51.556;5.080;2022-10-01T13:21:52;100526.41;;;17.76;86.95
36748;BME280;22716;51.556;5.080;2022-10-01T13:24:28;100542.13;;;17.81;86.88
36748;BME280;22716;51.556;5.080;2022-10-01T13:27:06;100539.47;;;17.81;86.88
36748;BME280;22716;51.556;5.080;2022-10-01T13:29:50;100537.88;;;17.77;86.92
36748;BME280;22716;51.556;5.080;2022-10-01T13:32:48;100551.88;;;17.80;86.98
36748;BME280;22716;51.556;5.080;2022-10-01T13:35:29;100537.38;;;17.69;86.82
36748;BME280;22716;51.556;5.080;2022-10-01T13:38:12;100552.66;;;17.82;86.68